Historyczne dane pomiarowe

Dodano dane terminowe – wersja testowa.

Dane z okresu 1951-2019

Wersja bazy: 1.34 [2019-03-16, lista zmian], aktualizacja planowana na 2019-04-15

Dane meteo z obszaru Polski uzyskane na podstawie danych udostępnionych przez Instytut Meteorologii i Gospodarki Wodnej – Państwowy Instytut Badawczy.

 

Wybierz Datę:    

       

TemperaturaWilgotnośćWiatrCiśnienieOpadyŚniegCzas trwania zjawisk
 Stacja t tx tn tng RH VA  wxwx mslp ppp RRR   cm mm wxwxwxwxwxwxwx
1952-02-26 -0.3 1.8 -2.9- 89.0- 8.0----- 2.0-- 20---------
1952-02-27 -5.9 0.1 -8.0- 84.8- 8.0----- 0.0-- 23---------
1952-02-28-12.0 -7.2-14.7- 73.0- 2.7----- 0.0-- 22---------
1952-02-29 -6.0 -4.0-15.1- 83.8- 8.0----- 2.2-- 22---------
1952-03-01 -3.2 1.6 -6.0- 88.5- 5.3----- 2.2-- 26---------
1952-03-02 -4.0 -0.3 -6.3- 74.3- 2.7----- 0.0-- 28---------
1952-03-03 -4.7 -0.9-10.2- 80.3- 2.7----- 0.0-- 26---------
1952-03-04-11.3 -3.9-16.3- 80.3- 1.3----- 0.0-- 26---------
1952-03-05 -5.6 -2.9-11.8- 80.3- 6.3----- 0.0-- 24---------
1952-03-06 -9.7 -4.0-12.6- 68.5- 0.3----- 0.0-- 24---------
1952-03-07 -7.9 -4.3-10.9- 51.0- 5.3----- 0.0-- 24---------
1952-03-08 -9.9 -3.2-14.5- 62.5- 0.0----- 0.0-- 23---------
1952-03-09 -6.0 2.9-19.6- 54.8- 0.0----- 0.0-- 22---------
1952-03-10 -1.4 7.1-15.4- 62.5- 1.3----- 0.0-- 22---------
1952-03-11 -0.6 6.4-10.4- 66.0- 0.0----- 0.0-- 21---------
1952-03-12 1.8 4.6 -1.2- 87.3- 8.0----- 0.0-- 21---------
1952-03-13 -1.1 1.7 -4.0- 91.3- 6.7----- 7.8-- 19---------
1952-03-14 -7.9 -2.8 -9.3- 75.8- 5.0----- 0.2-- 27---------
1952-03-15 -0.9 2.5-10.2- 80.8- 7.7----- 0.0-- 26---------
1952-03-16 0.6 4.6 -1.1- 78.3- 2.7----- 0.0-- 20---------
1952-03-17 -1.3 3.1 -3.9- 80.0- 3.0----- 0.0-- 18---------
1952-03-18 -7.8 -3.3-10.1- 64.3- 0.0----- 0.0-- 17---------
1952-03-19 -7.1 -0.5-15.3- 64.5- 4.0----- 0.4-- 14---------
1952-03-20 -6.9 -1.9-14.1- 81.3- 4.0----- 0.5-- 14---------
1952-03-21 -9.3 -4.0-12.5- 78.5- 4.3----- 0.0-- 17---------
1952-03-22-13.3 -6.8-19.6- 78.0- 0.0----- 0.0-- 15---------
1952-03-23 -9.4 -5.2-15.1- 67.3- 2.0----- 0.0-- 12---------
1952-03-24 -1.7 2.3-11.5- 91.8- 8.0----- 3.3-- 12---------
1952-03-25 -6.7 0.1-10.3- 78.0- 3.7----- 0.0-- 17---------
1952-03-26-10.9 -7.0-13.6- 71.3- 0.0----- 0.0-- 15---------
74.8 ms

 

Źródłem pochodzenia danych jest Instytut Meteorologii i Gospodarki Wodnej – Państwowy Instytut Badawczy. Dane Instytutu Meteorologii i Gospodarki Wodnej – Państwowego Instytutu Badawczego zostały przetworzone.

Dane źródłowe można odnaleźć na stronie https://dane.imgw.pl